sensor_id;sensor_type;location;lat;lon;timestamp;P1;durP1;ratioP1;P2;durP2;ratioP2
6013;SDS011;3035;49.928;8.410;2023-02-28T00:01:14;2.83;;;1.67;;
6013;SDS011;3035;49.928;8.410;2023-02-28T00:03:42;1.47;;;1.30;;
6013;SDS011;3035;49.928;8.410;2023-02-28T00:06:10;2.97;;;1.33;;
6013;SDS011;3035;49.928;8.410;2023-02-28T00:08:39;2.70;;;1.30;;
6013;SDS011;3035;49.928;8.410;2023-02-28T00:11:09;2.03;;;1.20;;
6013;SDS011;3035;49.928;8.410;2023-02-28T00:13:36;3.17;;;1.30;;
6013;SDS011;3035;49.928;8.410;2023-02-28T00:16:06;1.57;;;1.27;;
6013;SDS011;3035;49.928;8.410;2023-02-28T00:18:34;5.30;;;1.60;;
6013;SDS011;3035;49.928;8.410;2023-02-28T00:21:02;4.07;;;1.67;;
6013;SDS011;3035;49.928;8.410;2023-02-28T00:23:31;2.50;;;1.50;;
6013;SDS011;3035;49.928;8.410;2023-02-28T00:25:59;1.90;;;1.30;;
6013;SDS011;3035;49.928;8.410;2023-02-28T00:28:27;1.63;;;1.10;;
6013;SDS011;3035;49.928;8.410;2023-02-28T00:30:56;1.40;;;1.30;;
6013;SDS011;3035;49.928;8.410;2023-02-28T00:33:25;3.60;;;1.03;;
6013;SDS011;3035;49.928;8.410;2023-02-28T00:36:00;1.33;;;1.23;;
6013;SDS011;3035;49.928;8.410;2023-02-28T00:38:31;1.23;;;1.17;;
6013;SDS011;3035;49.928;8.410;2023-02-28T00:41:00;2.63;;;1.43;;
6013;SDS011;3035;49.928;8.410;2023-02-28T00:43:28;2.73;;;1.20;;
6013;SDS011;3035;49.928;8.410;2023-02-28T00:45:56;4.40;;;1.37;;
6013;SDS011;3035;49.928;8.410;2023-02-28T00:48:26;1.50;;;1.40;;
6013;SDS011;3035;49.928;8.410;2023-02-28T00:50:54;1.57;;;1.47;;
6013;SDS011;3035;49.928;8.410;2023-02-28T00:53:22;1.30;;;1.20;;
6013;SDS011;3035;49.928;8.410;2023-02-28T00:55:51;1.43;;;1.30;;
6013;SDS011;3035;49.928;8.410;2023-02-28T00:58:19;1.60;;;1.50;;
6013;SDS011;3035;49.928;8.410;2023-02-28T01:00:48;1.50;;;1.40;;
6013;SDS011;3035;49.928;8.410;2023-02-28T01:03:17;1.57;;;1.13;;
6013;SDS011;3035;49.928;8.410;2023-02-28T01:05:45;1.60;;;1.23;;
6013;SDS011;3035;49.928;8.410;2023-02-28T01:08:13;2.43;;;1.30;;
6013;SDS011;3035;49.928;8.410;2023-02-28T01:10:41;1.73;;;1.50;;
6013;SDS011;3035;49.928;8.410;2023-02-28T01:13:10;1.90;;;1.70;;
6013;SDS011;3035;49.928;8.410;2023-02-28T01:15:39;1.13;;;1.03;;
6013;SDS011;3035;49.928;8.410;2023-02-28T01:18:07;2.00;;;1.80;;
6013;SDS011;3035;49.928;8.410;2023-02-28T01:20:38;1.73;;;1.43;;
6013;SDS011;3035;49.928;8.410;2023-02-28T01:23:04;3.87;;;1.83;;
6013;SDS011;3035;49.928;8.410;2023-02-28T01:25:34;1.60;;;1.50;;
6013;SDS011;3035;49.928;8.410;2023-02-28T01:28:02;2.00;;;1.70;;
6013;SDS011;3035;49.928;8.410;2023-02-28T01:30:30;4.20;;;1.67;;
6013;SDS011;3035;49.928;8.410;2023-02-28T01:32:59;2.00;;;1.73;;
6013;SDS011;3035;49.928;8.410;2023-02-28T01:35:27;2.17;;;1.37;;
6013;SDS011;3035;49.928;8.410;2023-02-28T01:37:55;1.40;;;1.20;;
6013;SDS011;3035;49.928;8.410;2023-02-28T01:40:23;1.73;;;1.63;;
6013;SDS011;3035;49.928;8.410;2023-02-28T01:42:52;1.50;;;1.40;;
6013;SDS011;3035;49.928;8.410;2023-02-28T01:45:25;1.87;;;1.40;;
6013;SDS011;3035;49.928;8.410;2023-02-28T01:47:55;4.00;;;1.77;;
6013;SDS011;3035;49.928;8.410;2023-02-28T01:50:25;3.30;;;1.80;;
6013;SDS011;3035;49.928;8.410;2023-02-28T01:52:52;2.70;;;1.90;;
6013;SDS011;3035;49.928;8.410;2023-02-28T01:55:21;3.60;;;1.43;;
6013;SDS011;3035;49.928;8.410;2023-02-28T01:57:52;2.27;;;1.83;;
6013;SDS011;3035;49.928;8.410;2023-02-28T02:00:20;1.90;;;1.80;;
6013;SDS011;3035;49.928;8.410;2023-02-28T02:02:48;5.80;;;2.03;;
6013;SDS011;3035;49.928;8.410;2023-02-28T02:05:17;3.07;;;2.13;;
6013;SDS011;3035;49.928;8.410;2023-02-28T02:07:45;2.20;;;1.70;;
6013;SDS011;3035;49.928;8.410;2023-02-28T02:10:14;3.30;;;2.10;;
6013;SDS011;3035;49.928;8.410;2023-02-28T02:15:49;2.30;;;2.10;;
6013;SDS011;3035;49.928;8.410;2023-02-28T02:18:19;3.77;;;2.33;;
6013;SDS011;3035;49.928;8.410;2023-02-28T02:27:16;2.80;;;1.93;;
6013;SDS011;3035;49.928;8.410;2023-02-28T02:32:57;2.93;;;2.27;;
6013;SDS011;3035;49.928;8.410;2023-02-28T02:35:27;2.57;;;2.17;;
6013;SDS011;3035;49.928;8.410;2023-02-28T02:38:00;2.33;;;1.87;;
6013;SDS011;3035;49.928;8.410;2023-02-28T02:43:19;2.50;;;2.30;;
6013;SDS011;3035;49.928;8.410;2023-02-28T02:45:48;2.33;;;2.13;;
6013;SDS011;3035;49.928;8.410;2023-02-28T02:48:17;3.17;;;2.30;;
6013;SDS011;3035;49.928;8.410;2023-02-28T02:50:48;3.10;;;2.70;;
6013;SDS011;3035;49.928;8.410;2023-02-28T02:53:17;7.40;;;2.30;;
6013;SDS011;3035;49.928;8.410;2023-02-28T02:55:47;5.80;;;2.73;;
6013;SDS011;3035;49.928;8.410;2023-02-28T02:58:15;5.57;;;2.07;;
6013;SDS011;3035;49.928;8.410;2023-02-28T03:00:45;4.00;;;2.47;;
6013;SDS011;3035;49.928;8.410;2023-02-28T03:03:12;3.23;;;2.43;;
6013;SDS011;3035;49.928;8.410;2023-02-28T03:05:42;2.53;;;2.33;;
6013;SDS011;3035;49.928;8.410;2023-02-28T03:08:10;3.00;;;2.50;;
6013;SDS011;3035;49.928;8.410;2023-02-28T03:10:40;3.10;;;2.90;;
6013;SDS011;3035;49.928;8.410;2023-02-28T03:13:12;2.60;;;2.40;;
6013;SDS011;3035;49.928;8.410;2023-02-28T03:18:44;3.27;;;2.30;;
6013;SDS011;3035;49.928;8.410;2023-02-28T03:21:29;2.93;;;2.63;;
6013;SDS011;3035;49.928;8.410;2023-02-28T03:23:58;3.10;;;2.30;;
6013;SDS011;3035;49.928;8.410;2023-02-28T03:26:42;3.17;;;2.40;;
6013;SDS011;3035;49.928;8.410;2023-02-28T03:29:19;2.47;;;2.13;;
6013;SDS011;3035;49.928;8.410;2023-02-28T03:31:58;2.90;;;2.33;;
6013;SDS011;3035;49.928;8.410;2023-02-28T03:34:33;2.40;;;2.03;;
6013;SDS011;3035;49.928;8.410;2023-02-28T03:37:04;2.50;;;2.30;;
6013;SDS011;3035;49.928;8.410;2023-02-28T03:39:34;6.70;;;3.13;;
6013;SDS011;3035;49.928;8.410;2023-02-28T03:42:09;2.43;;;2.23;;
6013;SDS011;3035;49.928;8.410;2023-02-28T03:44:39;3.40;;;2.90;;
6013;SDS011;3035;49.928;8.410;2023-02-28T03:47:10;2.40;;;2.20;;
6013;SDS011;3035;49.928;8.410;2023-02-28T03:49:46;4.67;;;2.53;;
6013;SDS011;3035;49.928;8.410;2023-02-28T03:52:13;3.03;;;2.73;;
6013;SDS011;3035;49.928;8.410;2023-02-28T03:54:42;2.53;;;2.33;;
6013;SDS011;3035;49.928;8.410;2023-02-28T03:57:15;1.90;;;1.80;;
6013;SDS011;3035;49.928;8.410;2023-02-28T04:00:00;2.33;;;2.17;;
6013;SDS011;3035;49.928;8.410;2023-02-28T04:02:28;2.87;;;2.67;;
6013;SDS011;3035;49.928;8.410;2023-02-28T04:04:57;2.67;;;2.20;;
6013;SDS011;3035;49.928;8.410;2023-02-28T04:07:28;3.13;;;2.67;;
6013;SDS011;3035;49.928;8.410;2023-02-28T04:09:54;4.13;;;2.40;;
6013;SDS011;3035;49.928;8.410;2023-02-28T04:12:22;7.00;;;2.23;;
6013;SDS011;3035;49.928;8.410;2023-02-28T04:14:50;2.63;;;2.43;;
6013;SDS011;3035;49.928;8.410;2023-02-28T04:17:19;2.50;;;2.30;;
6013;SDS011;3035;49.928;8.410;2023-02-28T04:19:48;2.53;;;2.33;;
6013;SDS011;3035;49.928;8.410;2023-02-28T04:22:16;2.37;;;2.17;;
6013;SDS011;3035;49.928;8.410;2023-02-28T04:24:45;2.90;;;2.60;;
6013;SDS011;3035;49.928;8.410;2023-02-28T04:27:14;3.23;;;2.60;;
6013;SDS011;3035;49.928;8.410;2023-02-28T04:29:42;3.90;;;2.50;;
6013;SDS011;3035;49.928;8.410;2023-02-28T04:32:11;3.67;;;2.43;;
6013;SDS011;3035;49.928;8.410;2023-02-28T04:34:39;2.10;;;2.00;;
6013;SDS011;3035;49.928;8.410;2023-02-28T04:37:07;2.40;;;2.20;;
6013;SDS011;3035;49.928;8.410;2023-02-28T04:39:36;2.50;;;2.20;;
6013;SDS011;3035;49.928;8.410;2023-02-28T04:42:04;2.53;;;2.33;;
6013;SDS011;3035;49.928;8.410;2023-02-28T04:44:33;19.83;;;2.80;;
6013;SDS011;3035;49.928;8.410;2023-02-28T04:47:01;3.57;;;2.17;;
6013;SDS011;3035;49.928;8.410;2023-02-28T04:49:30;2.83;;;2.30;;
6013;SDS011;3035;49.928;8.410;2023-02-28T04:51:58;4.80;;;2.70;;
6013;SDS011;3035;49.928;8.410;2023-02-28T04:54:27;2.50;;;2.23;;
6013;SDS011;3035;49.928;8.410;2023-02-28T04:56:56;3.30;;;2.40;;
6013;SDS011;3035;49.928;8.410;2023-02-28T04:59:25;3.03;;;2.73;;
6013;SDS011;3035;49.928;8.410;2023-02-28T05:01:54;2.30;;;2.10;;
6013;SDS011;3035;49.928;8.410;2023-02-28T05:04:22;2.90;;;2.53;;
6013;SDS011;3035;49.928;8.410;2023-02-28T05:06:50;4.67;;;2.90;;
6013;SDS011;3035;49.928;8.410;2023-02-28T05:09:18;4.47;;;2.47;;
6013;SDS011;3035;49.928;8.410;2023-02-28T05:11:47;5.93;;;2.97;;
6013;SDS011;3035;49.928;8.410;2023-02-28T05:14:16;3.30;;;2.03;;
6013;SDS011;3035;49.928;8.410;2023-02-28T05:16:45;3.23;;;2.27;;
6013;SDS011;3035;49.928;8.410;2023-02-28T05:19:13;2.00;;;1.80;;
6013;SDS011;3035;49.928;8.410;2023-02-28T05:21:48;8.53;;;3.30;;
6013;SDS011;3035;49.928;8.410;2023-02-28T05:24:21;2.87;;;2.33;;
6013;SDS011;3035;49.928;8.410;2023-02-28T05:26:52;2.23;;;2.03;;
6013;SDS011;3035;49.928;8.410;2023-02-28T05:29:19;1.93;;;1.83;;
6013;SDS011;3035;49.928;8.410;2023-02-28T05:31:48;3.20;;;2.10;;
6013;SDS011;3035;49.928;8.410;2023-02-28T05:34:16;1.93;;;1.73;;
6013;SDS011;3035;49.928;8.410;2023-02-28T05:36:44;2.57;;;2.37;;
6013;SDS011;3035;49.928;8.410;2023-02-28T05:39:13;3.17;;;2.00;;
6013;SDS011;3035;49.928;8.410;2023-02-28T05:41:41;6.93;;;2.30;;
6013;SDS011;3035;49.928;8.410;2023-02-28T05:44:10;2.37;;;2.17;;
6013;SDS011;3035;49.928;8.410;2023-02-28T05:46:38;2.47;;;2.27;;
6013;SDS011;3035;49.928;8.410;2023-02-28T05:49:06;3.17;;;2.10;;
6013;SDS011;3035;49.928;8.410;2023-02-28T05:51:34;3.70;;;2.53;;
6013;SDS011;3035;49.928;8.410;2023-02-28T05:54:03;3.27;;;2.80;;
6013;SDS011;3035;49.928;8.410;2023-02-28T05:56:32;3.97;;;2.97;;
6013;SDS011;3035;49.928;8.410;2023-02-28T05:59:03;2.77;;;2.50;;
6013;SDS011;3035;49.928;8.410;2023-02-28T06:01:35;3.37;;;2.60;;
6013;SDS011;3035;49.928;8.410;2023-02-28T06:04:05;2.50;;;2.30;;
6013;SDS011;3035;49.928;8.410;2023-02-28T06:06:33;2.80;;;2.23;;
6013;SDS011;3035;49.928;8.410;2023-02-28T06:09:02;3.43;;;2.13;;
6013;SDS011;3035;49.928;8.410;2023-02-28T06:11:32;2.70;;;2.30;;
6013;SDS011;3035;49.928;8.410;2023-02-28T06:14:00;3.53;;;2.30;;
6013;SDS011;3035;49.928;8.410;2023-02-28T06:16:29;7.03;;;2.77;;
6013;SDS011;3035;49.928;8.410;2023-02-28T06:18:57;3.20;;;2.83;;
6013;SDS011;3035;49.928;8.410;2023-02-28T06:21:25;4.07;;;2.40;;
6013;SDS011;3035;49.928;8.410;2023-02-28T06:23:53;3.53;;;2.17;;
6013;SDS011;3035;49.928;8.410;2023-02-28T06:26:21;5.80;;;2.37;;
6013;SDS011;3035;49.928;8.410;2023-02-28T06:28:50;3.50;;;2.90;;
6013;SDS011;3035;49.928;8.410;2023-02-28T06:31:18;2.10;;;1.90;;
6013;SDS011;3035;49.928;8.410;2023-02-28T06:33:47;5.50;;;2.73;;
6013;SDS011;3035;49.928;8.410;2023-02-28T06:36:16;4.33;;;2.40;;
6013;SDS011;3035;49.928;8.410;2023-02-28T06:38:43;3.67;;;3.33;;
6013;SDS011;3035;49.928;8.410;2023-02-28T06:41:12;3.70;;;2.60;;
6013;SDS011;3035;49.928;8.410;2023-02-28T06:43:41;6.47;;;2.60;;
6013;SDS011;3035;49.928;8.410;2023-02-28T06:46:10;2.73;;;2.50;;
6013;SDS011;3035;49.928;8.410;2023-02-28T06:48:38;4.37;;;2.90;;
6013;SDS011;3035;49.928;8.410;2023-02-28T06:51:08;13.03;;;6.33;;
6013;SDS011;3035;49.928;8.410;2023-02-28T06:53:36;14.20;;;6.20;;
6013;SDS011;3035;49.928;8.410;2023-02-28T06:56:07;8.47;;;4.97;;
6013;SDS011;3035;49.928;8.410;2023-02-28T06:58:36;7.50;;;3.70;;
6013;SDS011;3035;49.928;8.410;2023-02-28T07:01:05;4.80;;;3.87;;
6013;SDS011;3035;49.928;8.410;2023-02-28T07:03:34;2.87;;;2.60;;
6013;SDS011;3035;49.928;8.410;2023-02-28T07:06:02;2.60;;;2.40;;
6013;SDS011;3035;49.928;8.410;2023-02-28T07:08:30;3.23;;;2.20;;
6013;SDS011;3035;49.928;8.410;2023-02-28T07:10:58;3.20;;;2.33;;
6013;SDS011;3035;49.928;8.410;2023-02-28T07:13:27;3.37;;;2.70;;
6013;SDS011;3035;49.928;8.410;2023-02-28T07:15:57;5.23;;;3.00;;
6013;SDS011;3035;49.928;8.410;2023-02-28T07:18:25;3.60;;;2.67;;
6013;SDS011;3035;49.928;8.410;2023-02-28T07:20:54;2.70;;;2.50;;
6013;SDS011;3035;49.928;8.410;2023-02-28T07:23:22;2.90;;;2.37;;
6013;SDS011;3035;49.928;8.410;2023-02-28T07:25:50;3.17;;;2.50;;
6013;SDS011;3035;49.928;8.410;2023-02-28T07:28:18;3.73;;;2.47;;
6013;SDS011;3035;49.928;8.410;2023-02-28T07:30:47;5.80;;;2.57;;
6013;SDS011;3035;49.928;8.410;2023-02-28T07:33:16;3.33;;;2.50;;
6013;SDS011;3035;49.928;8.410;2023-02-28T07:35:44;3.80;;;2.40;;
6013;SDS011;3035;49.928;8.410;2023-02-28T07:38:13;2.03;;;1.93;;
6013;SDS011;3035;49.928;8.410;2023-02-28T07:40:41;2.33;;;2.13;;
6013;SDS011;3035;49.928;8.410;2023-02-28T07:43:09;2.97;;;2.50;;
6013;SDS011;3035;49.928;8.410;2023-02-28T07:45:37;4.27;;;2.20;;
6013;SDS011;3035;49.928;8.410;2023-02-28T07:48:07;4.47;;;2.27;;
6013;SDS011;3035;49.928;8.410;2023-02-28T07:50:35;4.90;;;3.23;;
6013;SDS011;3035;49.928;8.410;2023-02-28T07:53:04;3.40;;;2.63;;
6013;SDS011;3035;49.928;8.410;2023-02-28T07:55:33;3.53;;;2.50;;
6013;SDS011;3035;49.928;8.410;2023-02-28T07:58:01;7.13;;;2.90;;
6013;SDS011;3035;49.928;8.410;2023-02-28T08:00:30;5.33;;;2.60;;
6013;SDS011;3035;49.928;8.410;2023-02-28T08:02:59;4.27;;;2.70;;
6013;SDS011;3035;49.928;8.410;2023-02-28T08:05:28;5.23;;;2.90;;
6013;SDS011;3035;49.928;8.410;2023-02-28T08:07:56;3.43;;;2.43;;
6013;SDS011;3035;49.928;8.410;2023-02-28T08:10:24;3.20;;;2.20;;
6013;SDS011;3035;49.928;8.410;2023-02-28T08:12:52;2.40;;;2.20;;
6013;SDS011;3035;49.928;8.410;2023-02-28T08:15:21;1.77;;;1.67;;
6013;SDS011;3035;49.928;8.410;2023-02-28T08:17:49;2.20;;;2.00;;
6013;SDS011;3035;49.928;8.410;2023-02-28T08:20:18;1.93;;;1.80;;
6013;SDS011;3035;49.928;8.410;2023-02-28T08:22:47;7.80;;;2.63;;
6013;SDS011;3035;49.928;8.410;2023-02-28T08:25:16;9.80;;;2.37;;
6013;SDS011;3035;49.928;8.410;2023-02-28T08:27:44;2.80;;;2.57;;
6013;SDS011;3035;49.928;8.410;2023-02-28T08:30:13;2.10;;;1.83;;
6013;SDS011;3035;49.928;8.410;2023-02-28T08:32:43;2.70;;;2.37;;
6013;SDS011;3035;49.928;8.410;2023-02-28T08:35:11;3.20;;;1.80;;
6013;SDS011;3035;49.928;8.410;2023-02-28T08:37:39;2.13;;;1.93;;
6013;SDS011;3035;49.928;8.410;2023-02-28T08:40:08;2.03;;;1.90;;
6013;SDS011;3035;49.928;8.410;2023-02-28T08:42:38;3.60;;;2.40;;
6013;SDS011;3035;49.928;8.410;2023-02-28T08:45:07;3.70;;;2.00;;
6013;SDS011;3035;49.928;8.410;2023-02-28T08:47:36;2.60;;;1.80;;
6013;SDS011;3035;49.928;8.410;2023-02-28T08:50:04;4.03;;;2.33;;
6013;SDS011;3035;49.928;8.410;2023-02-28T08:52:33;5.13;;;2.27;;
6013;SDS011;3035;49.928;8.410;2023-02-28T08:55:01;3.00;;;2.10;;
6013;SDS011;3035;49.928;8.410;2023-02-28T08:57:29;1.60;;;1.50;;
6013;SDS011;3035;49.928;8.410;2023-02-28T08:59:57;2.33;;;2.13;;
6013;SDS011;3035;49.928;8.410;2023-02-28T09:02:26;3.20;;;2.33;;
6013;SDS011;3035;49.928;8.410;2023-02-28T09:04:54;7.23;;;2.13;;
6013;SDS011;3035;49.928;8.410;2023-02-28T09:07:23;3.67;;;1.90;;
6013;SDS011;3035;49.928;8.410;2023-02-28T09:09:52;2.43;;;2.23;;
6013;SDS011;3035;49.928;8.410;2023-02-28T09:12:21;2.37;;;2.17;;
6013;SDS011;3035;49.928;8.410;2023-02-28T09:14:49;2.73;;;2.30;;
6013;SDS011;3035;49.928;8.410;2023-02-28T09:17:17;2.53;;;2.13;;
6013;SDS011;3035;49.928;8.410;2023-02-28T09:19:47;2.50;;;2.13;;
6013;SDS011;3035;49.928;8.410;2023-02-28T09:22:14;2.90;;;2.10;;
6013;SDS011;3035;49.928;8.410;2023-02-28T09:24:42;3.30;;;2.07;;
6013;SDS011;3035;49.928;8.410;2023-02-28T09:27:11;5.50;;;2.40;;
6013;SDS011;3035;49.928;8.410;2023-02-28T09:29:39;4.30;;;2.17;;
6013;SDS011;3035;49.928;8.410;2023-02-28T09:32:08;4.17;;;2.10;;
6013;SDS011;3035;49.928;8.410;2023-02-28T09:34:36;3.00;;;2.20;;
6013;SDS011;3035;49.928;8.410;2023-02-28T09:37:04;2.20;;;1.93;;
6013;SDS011;3035;49.928;8.410;2023-02-28T09:39:33;5.20;;;2.43;;
6013;SDS011;3035;49.928;8.410;2023-02-28T09:42:02;2.30;;;2.10;;
6013;SDS011;3035;49.928;8.410;2023-02-28T09:44:33;2.87;;;2.10;;
6013;SDS011;3035;49.928;8.410;2023-02-28T09:47:07;2.60;;;2.40;;
6013;SDS011;3035;49.928;8.410;2023-02-28T09:49:39;4.10;;;2.30;;
6013;SDS011;3035;49.928;8.410;2023-02-28T09:52:09;4.43;;;2.57;;
6013;SDS011;3035;49.928;8.410;2023-02-28T09:54:38;6.50;;;3.40;;
6013;SDS011;3035;49.928;8.410;2023-02-28T09:57:11;6.77;;;3.50;;
6013;SDS011;3035;49.928;8.410;2023-02-28T09:59:39;6.37;;;4.10;;
6013;SDS011;3035;49.928;8.410;2023-02-28T10:02:17;3.20;;;2.50;;
6013;SDS011;3035;49.928;8.410;2023-02-28T10:05:07;3.80;;;2.97;;
6013;SDS011;3035;49.928;8.410;2023-02-28T10:10:26;2.60;;;2.17;;
6013;SDS011;3035;49.928;8.410;2023-02-28T10:13:02;4.70;;;3.00;;
6013;SDS011;3035;49.928;8.410;2023-02-28T10:15:31;3.40;;;3.10;;
6013;SDS011;3035;49.928;8.410;2023-02-28T10:18:02;6.93;;;2.90;;
6013;SDS011;3035;49.928;8.410;2023-02-28T10:20:32;5.00;;;2.80;;
6013;SDS011;3035;49.928;8.410;2023-02-28T10:23:03;3.13;;;2.83;;
6013;SDS011;3035;49.928;8.410;2023-02-28T10:25:34;4.50;;;2.80;;
6013;SDS011;3035;49.928;8.410;2023-02-28T10:28:09;4.30;;;2.73;;
6013;SDS011;3035;49.928;8.410;2023-02-28T10:30:43;3.43;;;2.70;;
6013;SDS011;3035;49.928;8.410;2023-02-28T10:33:18;4.00;;;2.40;;
6013;SDS011;3035;49.928;8.410;2023-02-28T10:35:51;4.13;;;2.70;;
6013;SDS011;3035;49.928;8.410;2023-02-28T10:38:22;4.23;;;3.03;;
6013;SDS011;3035;49.928;8.410;2023-02-28T10:40:51;5.60;;;3.00;;
6013;SDS011;3035;49.928;8.410;2023-02-28T10:43:21;4.27;;;2.33;;
6013;SDS011;3035;49.928;8.410;2023-02-28T10:45:57;2.70;;;2.47;;
6013;SDS011;3035;49.928;8.410;2023-02-28T10:48:31;3.70;;;2.37;;
6013;SDS011;3035;49.928;8.410;2023-02-28T10:51:00;2.73;;;2.50;;
6013;SDS011;3035;49.928;8.410;2023-02-28T10:53:31;2.93;;;2.30;;
6013;SDS011;3035;49.928;8.410;2023-02-28T10:56:24;4.00;;;2.57;;
6013;SDS011;3035;49.928;8.410;2023-02-28T10:58:55;4.37;;;2.80;;
6013;SDS011;3035;49.928;8.410;2023-02-28T11:01:38;3.83;;;2.43;;
6013;SDS011;3035;49.928;8.410;2023-02-28T11:04:16;3.03;;;2.53;;
6013;SDS011;3035;49.928;8.410;2023-02-28T11:06:46;3.73;;;2.83;;
6013;SDS011;3035;49.928;8.410;2023-02-28T11:09:18;4.70;;;2.50;;
6013;SDS011;3035;49.928;8.410;2023-02-28T11:11:59;2.70;;;2.20;;
6013;SDS011;3035;49.928;8.410;2023-02-28T11:14:30;3.93;;;3.10;;
6013;SDS011;3035;49.928;8.410;2023-02-28T11:17:02;5.67;;;3.07;;
6013;SDS011;3035;49.928;8.410;2023-02-28T11:19:33;3.10;;;2.63;;
6013;SDS011;3035;49.928;8.410;2023-02-28T11:22:01;3.20;;;2.53;;
6013;SDS011;3035;49.928;8.410;2023-02-28T11:24:31;2.57;;;2.37;;
6013;SDS011;3035;49.928;8.410;2023-02-28T11:27:00;4.57;;;2.77;;
6013;SDS011;3035;49.928;8.410;2023-02-28T11:29:30;3.33;;;2.83;;
6013;SDS011;3035;49.928;8.410;2023-02-28T11:32:03;2.40;;;2.20;;
6013;SDS011;3035;49.928;8.410;2023-02-28T11:34:32;4.10;;;2.90;;
6013;SDS011;3035;49.928;8.410;2023-02-28T11:37:02;4.13;;;2.83;;
6013;SDS011;3035;49.928;8.410;2023-02-28T11:39:32;2.87;;;2.63;;
6013;SDS011;3035;49.928;8.410;2023-02-28T11:45:11;4.17;;;3.07;;
6013;SDS011;3035;49.928;8.410;2023-02-28T11:53:34;2.90;;;2.13;;
6013;SDS011;3035;49.928;8.410;2023-02-28T11:56:33;4.33;;;3.00;;
6013;SDS011;3035;49.928;8.410;2023-02-28T11:59:25;4.27;;;2.70;;
6013;SDS011;3035;49.928;8.410;2023-02-28T12:04:45;7.33;;;2.90;;
6013;SDS011;3035;49.928;8.410;2023-02-28T12:10:01;4.43;;;3.73;;
6013;SDS011;3035;49.928;8.410;2023-02-28T12:12:38;4.80;;;3.27;;
6013;SDS011;3035;49.928;8.410;2023-02-28T12:18:14;7.73;;;3.83;;
6013;SDS011;3035;49.928;8.410;2023-02-28T12:23:56;6.90;;;3.97;;
6013;SDS011;3035;49.928;8.410;2023-02-28T12:26:34;4.63;;;3.00;;
6013;SDS011;3035;49.928;8.410;2023-02-28T12:29:04;5.43;;;3.90;;
6013;SDS011;3035;49.928;8.410;2023-02-28T12:31:54;5.80;;;3.60;;
6013;SDS011;3035;49.928;8.410;2023-02-28T12:34:27;4.43;;;3.50;;
6013;SDS011;3035;49.928;8.410;2023-02-28T12:36:56;6.13;;;3.87;;
6013;SDS011;3035;49.928;8.410;2023-02-28T12:39:26;5.27;;;3.80;;
6013;SDS011;3035;49.928;8.410;2023-02-28T12:41:59;4.50;;;3.50;;
6013;SDS011;3035;49.928;8.410;2023-02-28T12:44:30;5.40;;;3.50;;
6013;SDS011;3035;49.928;8.410;2023-02-28T12:47:00;3.80;;;2.80;;
6013;SDS011;3035;49.928;8.410;2023-02-28T12:49:33;3.57;;;3.03;;
6013;SDS011;3035;49.928;8.410;2023-02-28T12:52:02;3.43;;;3.10;;
6013;SDS011;3035;49.928;8.410;2023-02-28T12:54:38;3.67;;;3.20;;
6013;SDS011;3035;49.928;8.410;2023-02-28T12:57:13;3.83;;;2.87;;
6013;SDS011;3035;49.928;8.410;2023-02-28T12:59:43;9.00;;;3.87;;
6013;SDS011;3035;49.928;8.410;2023-02-28T13:05:17;4.80;;;3.53;;
6013;SDS011;3035;49.928;8.410;2023-02-28T13:10:38;5.40;;;3.57;;
6013;SDS011;3035;49.928;8.410;2023-02-28T13:13:16;6.07;;;4.03;;
6013;SDS011;3035;49.928;8.410;2023-02-28T13:18:27;4.13;;;3.73;;
6013;SDS011;3035;49.928;8.410;2023-02-28T13:21:06;5.33;;;3.87;;
6013;SDS011;3035;49.928;8.410;2023-02-28T13:23:38;7.53;;;3.40;;
6013;SDS011;3035;49.928;8.410;2023-02-28T13:26:07;6.53;;;3.30;;
6013;SDS011;3035;49.928;8.410;2023-02-28T13:31:27;5.27;;;3.90;;
6013;SDS011;3035;49.928;8.410;2023-02-28T13:34:05;10.60;;;3.70;;
6013;SDS011;3035;49.928;8.410;2023-02-28T13:36:42;4.17;;;3.20;;
6013;SDS011;3035;49.928;8.410;2023-02-28T13:42:22;6.13;;;4.80;;
6013;SDS011;3035;49.928;8.410;2023-02-28T13:47:54;5.47;;;4.10;;
6013;SDS011;3035;49.928;8.410;2023-02-28T13:50:32;9.20;;;5.23;;
6013;SDS011;3035;49.928;8.410;2023-02-28T13:53:13;5.50;;;4.20;;
6013;SDS011;3035;49.928;8.410;2023-02-28T13:58:53;7.00;;;4.60;;
6013;SDS011;3035;49.928;8.410;2023-02-28T14:04:34;5.40;;;3.93;;
6013;SDS011;3035;49.928;8.410;2023-02-28T14:07:18;6.13;;;4.10;;
6013;SDS011;3035;49.928;8.410;2023-02-28T14:09:51;6.37;;;4.33;;
6013;SDS011;3035;49.928;8.410;2023-02-28T14:17:54;8.47;;;4.40;;
6013;SDS011;3035;49.928;8.410;2023-02-28T14:20:24;4.63;;;3.70;;
6013;SDS011;3035;49.928;8.410;2023-02-28T14:22:57;5.73;;;3.80;;
6013;SDS011;3035;49.928;8.410;2023-02-28T14:25:31;4.23;;;3.83;;
6013;SDS011;3035;49.928;8.410;2023-02-28T14:28:18;5.10;;;3.73;;
6013;SDS011;3035;49.928;8.410;2023-02-28T14:31:18;5.20;;;4.17;;
6013;SDS011;3035;49.928;8.410;2023-02-28T14:36:57;6.83;;;4.07;;
6013;SDS011;3035;49.928;8.410;2023-02-28T14:39:25;6.87;;;3.80;;
6013;SDS011;3035;49.928;8.410;2023-02-28T14:41:56;10.10;;;4.87;;
6013;SDS011;3035;49.928;8.410;2023-02-28T14:44:28;7.10;;;4.23;;
6013;SDS011;3035;49.928;8.410;2023-02-28T14:46:59;6.13;;;4.00;;
6013;SDS011;3035;49.928;8.410;2023-02-28T14:49:31;6.77;;;4.67;;
6013;SDS011;3035;49.928;8.410;2023-02-28T14:52:07;6.40;;;5.00;;
6013;SDS011;3035;49.928;8.410;2023-02-28T14:54:52;5.30;;;4.23;;
6013;SDS011;3035;49.928;8.410;2023-02-28T14:57:23;6.60;;;4.27;;
6013;SDS011;3035;49.928;8.410;2023-02-28T15:00:03;5.47;;;3.83;;
6013;SDS011;3035;49.928;8.410;2023-02-28T15:02:33;4.97;;;4.47;;
6013;SDS011;3035;49.928;8.410;2023-02-28T15:05:02;4.60;;;3.60;;
6013;SDS011;3035;49.928;8.410;2023-02-28T15:07:30;7.63;;;4.47;;
6013;SDS011;3035;49.928;8.410;2023-02-28T15:12:51;4.73;;;3.73;;
6013;SDS011;3035;49.928;8.410;2023-02-28T15:15:21;5.40;;;4.10;;
6013;SDS011;3035;49.928;8.410;2023-02-28T15:17:51;6.57;;;4.77;;
6013;SDS011;3035;49.928;8.410;2023-02-28T15:20:20;6.47;;;3.70;;
6013;SDS011;3035;49.928;8.410;2023-02-28T15:22:50;5.90;;;3.70;;
6013;SDS011;3035;49.928;8.410;2023-02-28T15:25:20;4.27;;;3.73;;
6013;SDS011;3035;49.928;8.410;2023-02-28T15:27:49;8.40;;;3.83;;
6013;SDS011;3035;49.928;8.410;2023-02-28T15:30:19;7.13;;;3.90;;
6013;SDS011;3035;49.928;8.410;2023-02-28T15:35:30;5.57;;;4.00;;
6013;SDS011;3035;49.928;8.410;2023-02-28T15:38:01;6.27;;;3.80;;
6013;SDS011;3035;49.928;8.410;2023-02-28T15:40:32;5.87;;;4.13;;
6013;SDS011;3035;49.928;8.410;2023-02-28T15:43:05;6.73;;;4.43;;
6013;SDS011;3035;49.928;8.410;2023-02-28T15:45:35;9.17;;;4.47;;
6013;SDS011;3035;49.928;8.410;2023-02-28T15:51:01;6.10;;;4.30;;
6013;SDS011;3035;49.928;8.410;2023-02-28T15:53:37;5.53;;;3.73;;
6013;SDS011;3035;49.928;8.410;2023-02-28T15:56:18;6.00;;;4.00;;
6013;SDS011;3035;49.928;8.410;2023-02-28T15:59:02;5.20;;;3.90;;
6013;SDS011;3035;49.928;8.410;2023-02-28T16:01:32;7.57;;;4.23;;
6013;SDS011;3035;49.928;8.410;2023-02-28T16:04:02;7.00;;;4.67;;
6013;SDS011;3035;49.928;8.410;2023-02-28T16:06:34;7.50;;;4.10;;
6013;SDS011;3035;49.928;8.410;2023-02-28T16:09:03;5.50;;;4.63;;
6013;SDS011;3035;49.928;8.410;2023-02-28T16:11:32;4.87;;;3.90;;
6013;SDS011;3035;49.928;8.410;2023-02-28T16:14:01;4.53;;;4.10;;
6013;SDS011;3035;49.928;8.410;2023-02-28T16:16:31;5.53;;;4.67;;
6013;SDS011;3035;49.928;8.410;2023-02-28T16:19:00;6.60;;;4.23;;
6013;SDS011;3035;49.928;8.410;2023-02-28T16:21:29;5.47;;;4.07;;
6013;SDS011;3035;49.928;8.410;2023-02-28T16:23:59;5.93;;;4.67;;
6013;SDS011;3035;49.928;8.410;2023-02-28T16:26:28;10.90;;;5.40;;
6013;SDS011;3035;49.928;8.410;2023-02-28T16:28:57;5.30;;;3.80;;
6013;SDS011;3035;49.928;8.410;2023-02-28T16:31:27;7.63;;;3.90;;
6013;SDS011;3035;49.928;8.410;2023-02-28T16:33:56;8.67;;;4.17;;
6013;SDS011;3035;49.928;8.410;2023-02-28T16:36:25;6.67;;;4.53;;
6013;SDS011;3035;49.928;8.410;2023-02-28T16:38:55;10.13;;;4.07;;
6013;SDS011;3035;49.928;8.410;2023-02-28T16:41:25;8.57;;;4.43;;
6013;SDS011;3035;49.928;8.410;2023-02-28T16:43:54;8.03;;;4.40;;
6013;SDS011;3035;49.928;8.410;2023-02-28T16:46:28;4.90;;;4.23;;
6013;SDS011;3035;49.928;8.410;2023-02-28T16:48:56;7.30;;;3.80;;
6013;SDS011;3035;49.928;8.410;2023-02-28T16:51:26;5.83;;;3.77;;
6013;SDS011;3035;49.928;8.410;2023-02-28T16:53:55;6.47;;;3.90;;
6013;SDS011;3035;49.928;8.410;2023-02-28T16:56:25;11.03;;;5.97;;
6013;SDS011;3035;49.928;8.410;2023-02-28T16:58:55;7.60;;;4.60;;